sensor_id;sensor_type;location;lat;lon;timestamp;P1;durP1;ratioP1;P2;durP2;ratioP2
12267;SDS011;6196;48.398;11.736;2022-07-23T00:01:24;9.53;;;8.73;;
12267;SDS011;6196;48.398;11.736;2022-07-23T00:03:53;9.33;;;8.43;;
12267;SDS011;6196;48.398;11.736;2022-07-23T00:06:21;8.63;;;7.83;;
12267;SDS011;6196;48.398;11.736;2022-07-23T00:08:49;8.60;;;7.80;;
12267;SDS011;6196;48.398;11.736;2022-07-23T00:11:16;8.63;;;7.87;;
12267;SDS011;6196;48.398;11.736;2022-07-23T00:13:44;8.50;;;7.70;;
12267;SDS011;6196;48.398;11.736;2022-07-23T00:16:11;8.87;;;7.77;;
12267;SDS011;6196;48.398;11.736;2022-07-23T00:18:38;8.83;;;8.03;;
12267;SDS011;6196;48.398;11.736;2022-07-23T00:21:05;8.33;;;7.53;;
12267;SDS011;6196;48.398;11.736;2022-07-23T00:23:33;8.20;;;7.50;;
12267;SDS011;6196;48.398;11.736;2022-07-23T00:25:59;9.00;;;8.20;;
12267;SDS011;6196;48.398;11.736;2022-07-23T00:28:26;9.43;;;8.60;;
12267;SDS011;6196;48.398;11.736;2022-07-23T00:30:53;8.40;;;7.57;;
12267;SDS011;6196;48.398;11.736;2022-07-23T00:33:20;8.77;;;8.07;;
12267;SDS011;6196;48.398;11.736;2022-07-23T00:35:47;8.40;;;7.70;;
12267;SDS011;6196;48.398;11.736;2022-07-23T00:38:14;8.70;;;7.87;;
12267;SDS011;6196;48.398;11.736;2022-07-23T00:40:41;9.20;;;8.30;;
12267;SDS011;6196;48.398;11.736;2022-07-23T00:43:08;8.30;;;7.60;;
12267;SDS011;6196;48.398;11.736;2022-07-23T00:45:35;8.57;;;7.80;;
12267;SDS011;6196;48.398;11.736;2022-07-23T00:48:02;8.67;;;7.77;;
12267;SDS011;6196;48.398;11.736;2022-07-23T00:50:29;8.67;;;7.90;;
12267;SDS011;6196;48.398;11.736;2022-07-23T00:52:56;8.90;;;8.10;;
12267;SDS011;6196;48.398;11.736;2022-07-23T00:55:23;9.10;;;8.20;;
12267;SDS011;6196;48.398;11.736;2022-07-23T00:57:50;8.87;;;8.07;;
12267;SDS011;6196;48.398;11.736;2022-07-23T01:00:20;8.47;;;7.73;;
12267;SDS011;6196;48.398;11.736;2022-07-23T01:02:47;9.53;;;8.57;;
12267;SDS011;6196;48.398;11.736;2022-07-23T01:05:14;9.27;;;8.40;;
12267;SDS011;6196;48.398;11.736;2022-07-23T01:07:42;9.57;;;8.77;;
12267;SDS011;6196;48.398;11.736;2022-07-23T01:10:09;9.03;;;8.27;;
12267;SDS011;6196;48.398;11.736;2022-07-23T01:12:55;9.20;;;8.40;;
12267;SDS011;6196;48.398;11.736;2022-07-23T01:15:22;9.20;;;8.40;;
12267;SDS011;6196;48.398;11.736;2022-07-23T01:17:49;10.40;;;8.53;;
12267;SDS011;6196;48.398;11.736;2022-07-23T01:20:17;10.00;;;8.70;;
12267;SDS011;6196;48.398;11.736;2022-07-23T01:22:45;9.93;;;8.50;;
12267;SDS011;6196;48.398;11.736;2022-07-23T01:25:12;10.10;;;9.20;;
12267;SDS011;6196;48.398;11.736;2022-07-23T01:27:39;11.47;;;10.07;;
12267;SDS011;6196;48.398;11.736;2022-07-23T01:30:07;10.67;;;9.57;;
12267;SDS011;6196;48.398;11.736;2022-07-23T01:32:35;10.57;;;9.27;;
12267;SDS011;6196;48.398;11.736;2022-07-23T01:35:02;9.73;;;8.67;;
12267;SDS011;6196;48.398;11.736;2022-07-23T01:37:30;11.33;;;8.40;;
12267;SDS011;6196;48.398;11.736;2022-07-23T01:39:57;9.20;;;6.73;;
12267;SDS011;6196;48.398;11.736;2022-07-23T01:42:24;6.53;;;5.93;;
12267;SDS011;6196;48.398;11.736;2022-07-23T01:44:51;8.00;;;6.37;;
12267;SDS011;6196;48.398;11.736;2022-07-23T01:47:18;6.60;;;5.87;;
12267;SDS011;6196;48.398;11.736;2022-07-23T01:49:45;6.93;;;5.50;;
12267;SDS011;6196;48.398;11.736;2022-07-23T01:52:12;7.20;;;5.53;;
12267;SDS011;6196;48.398;11.736;2022-07-23T01:54:39;6.30;;;5.70;;
12267;SDS011;6196;48.398;11.736;2022-07-23T01:57:06;7.40;;;5.40;;
12267;SDS011;6196;48.398;11.736;2022-07-23T01:59:34;10.50;;;5.90;;
12267;SDS011;6196;48.398;11.736;2022-07-23T02:02:02;6.87;;;6.10;;
12267;SDS011;6196;48.398;11.736;2022-07-23T02:04:30;7.67;;;6.70;;
12267;SDS011;6196;48.398;11.736;2022-07-23T02:06:57;7.33;;;6.53;;
12267;SDS011;6196;48.398;11.736;2022-07-23T02:09:23;8.07;;;6.40;;
12267;SDS011;6196;48.398;11.736;2022-07-23T02:11:50;7.97;;;6.80;;
12267;SDS011;6196;48.398;11.736;2022-07-23T02:14:17;7.43;;;6.20;;
12267;SDS011;6196;48.398;11.736;2022-07-23T02:16:44;8.33;;;6.77;;
12267;SDS011;6196;48.398;11.736;2022-07-23T02:19:11;8.63;;;7.10;;
12267;SDS011;6196;48.398;11.736;2022-07-23T02:21:38;9.73;;;7.63;;
12267;SDS011;6196;48.398;11.736;2022-07-23T02:24:05;8.00;;;7.10;;
12267;SDS011;6196;48.398;11.736;2022-07-23T02:26:32;9.03;;;7.63;;
12267;SDS011;6196;48.398;11.736;2022-07-23T02:29:01;8.33;;;7.50;;
12267;SDS011;6196;48.398;11.736;2022-07-23T02:31:30;8.47;;;7.43;;
12267;SDS011;6196;48.398;11.736;2022-07-23T02:33:57;8.37;;;7.53;;
12267;SDS011;6196;48.398;11.736;2022-07-23T02:36:24;7.97;;;7.00;;
12267;SDS011;6196;48.398;11.736;2022-07-23T02:38:53;7.47;;;6.53;;
12267;SDS011;6196;48.398;11.736;2022-07-23T02:41:19;11.77;;;7.57;;
12267;SDS011;6196;48.398;11.736;2022-07-23T02:43:46;9.17;;;7.73;;
12267;SDS011;6196;48.398;11.736;2022-07-23T02:46:13;10.27;;;7.50;;
12267;SDS011;6196;48.398;11.736;2022-07-23T02:48:40;10.63;;;7.63;;
12267;SDS011;6196;48.398;11.736;2022-07-23T02:51:07;12.17;;;7.77;;
12267;SDS011;6196;48.398;11.736;2022-07-23T02:53:40;10.43;;;6.97;;
12267;SDS011;6196;48.398;11.736;2022-07-23T02:56:07;11.07;;;7.57;;
12267;SDS011;6196;48.398;11.736;2022-07-23T02:58:34;9.63;;;6.93;;
12267;SDS011;6196;48.398;11.736;2022-07-23T03:01:02;9.17;;;6.43;;
12267;SDS011;6196;48.398;11.736;2022-07-23T03:03:29;7.03;;;6.30;;
12267;SDS011;6196;48.398;11.736;2022-07-23T03:05:56;8.57;;;7.00;;
12267;SDS011;6196;48.398;11.736;2022-07-23T03:08:23;8.10;;;7.30;;
12267;SDS011;6196;48.398;11.736;2022-07-23T03:10:50;11.90;;;7.43;;
12267;SDS011;6196;48.398;11.736;2022-07-23T03:13:17;8.73;;;7.20;;
12267;SDS011;6196;48.398;11.736;2022-07-23T03:15:44;9.93;;;6.60;;
12267;SDS011;6196;48.398;11.736;2022-07-23T03:18:11;7.80;;;6.50;;
12267;SDS011;6196;48.398;11.736;2022-07-23T03:20:37;8.57;;;6.40;;
12267;SDS011;6196;48.398;11.736;2022-07-23T03:23:04;7.40;;;6.20;;
12267;SDS011;6196;48.398;11.736;2022-07-23T03:25:31;7.33;;;6.17;;
12267;SDS011;6196;48.398;11.736;2022-07-23T03:27:58;8.23;;;5.80;;
12267;SDS011;6196;48.398;11.736;2022-07-23T03:30:25;7.60;;;6.07;;
12267;SDS011;6196;48.398;11.736;2022-07-23T03:32:52;6.77;;;6.07;;
12267;SDS011;6196;48.398;11.736;2022-07-23T03:35:19;8.00;;;6.13;;
12267;SDS011;6196;48.398;11.736;2022-07-23T03:37:46;6.87;;;6.17;;
12267;SDS011;6196;48.398;11.736;2022-07-23T03:40:13;7.77;;;6.70;;
12267;SDS011;6196;48.398;11.736;2022-07-23T03:42:40;7.73;;;5.80;;
12267;SDS011;6196;48.398;11.736;2022-07-23T03:45:08;8.23;;;6.10;;
12267;SDS011;6196;48.398;11.736;2022-07-23T03:47:35;7.43;;;6.67;;
12267;SDS011;6196;48.398;11.736;2022-07-23T03:50:03;8.77;;;6.53;;
12267;SDS011;6196;48.398;11.736;2022-07-23T03:52:30;7.37;;;6.60;;
12267;SDS011;6196;48.398;11.736;2022-07-23T03:54:57;7.90;;;6.20;;
12267;SDS011;6196;48.398;11.736;2022-07-23T03:57:24;7.20;;;6.40;;
12267;SDS011;6196;48.398;11.736;2022-07-23T03:59:51;6.40;;;5.80;;
12267;SDS011;6196;48.398;11.736;2022-07-23T04:02:18;8.17;;;6.40;;
12267;SDS011;6196;48.398;11.736;2022-07-23T04:04:45;7.40;;;6.70;;
12267;SDS011;6196;48.398;11.736;2022-07-23T04:07:12;6.57;;;5.97;;
12267;SDS011;6196;48.398;11.736;2022-07-23T04:09:40;7.30;;;6.60;;
12267;SDS011;6196;48.398;11.736;2022-07-23T04:12:11;7.10;;;6.30;;
12267;SDS011;6196;48.398;11.736;2022-07-23T04:14:38;7.23;;;6.10;;
12267;SDS011;6196;48.398;11.736;2022-07-23T04:17:05;11.37;;;6.47;;
12267;SDS011;6196;48.398;11.736;2022-07-23T04:19:32;8.47;;;6.40;;
12267;SDS011;6196;48.398;11.736;2022-07-23T04:21:59;11.40;;;6.73;;
12267;SDS011;6196;48.398;11.736;2022-07-23T04:24:26;9.73;;;6.60;;
12267;SDS011;6196;48.398;11.736;2022-07-23T04:26:53;8.90;;;7.00;;
12267;SDS011;6196;48.398;11.736;2022-07-23T04:29:20;8.20;;;6.10;;
12267;SDS011;6196;48.398;11.736;2022-07-23T04:31:46;7.20;;;6.30;;
12267;SDS011;6196;48.398;11.736;2022-07-23T04:34:13;6.33;;;5.70;;
12267;SDS011;6196;48.398;11.736;2022-07-23T04:36:40;7.40;;;5.63;;
12267;SDS011;6196;48.398;11.736;2022-07-23T04:39:07;6.10;;;5.50;;
12267;SDS011;6196;48.398;11.736;2022-07-23T04:41:34;6.33;;;5.77;;
12267;SDS011;6196;48.398;11.736;2022-07-23T04:44:02;7.70;;;6.07;;
12267;SDS011;6196;48.398;11.736;2022-07-23T04:46:29;6.67;;;5.10;;
12267;SDS011;6196;48.398;11.736;2022-07-23T04:48:56;6.40;;;5.33;;
12267;SDS011;6196;48.398;11.736;2022-07-23T04:51:24;5.30;;;4.80;;
12267;SDS011;6196;48.398;11.736;2022-07-23T04:53:51;5.70;;;4.90;;
12267;SDS011;6196;48.398;11.736;2022-07-23T04:56:18;6.53;;;5.07;;
12267;SDS011;6196;48.398;11.736;2022-07-23T04:58:45;6.60;;;5.30;;
12267;SDS011;6196;48.398;11.736;2022-07-23T05:01:12;6.00;;;5.40;;
12267;SDS011;6196;48.398;11.736;2022-07-23T05:03:39;5.93;;;4.93;;
12267;SDS011;6196;48.398;11.736;2022-07-23T05:06:06;6.20;;;5.60;;
12267;SDS011;6196;48.398;11.736;2022-07-23T05:08:33;6.40;;;5.67;;
12267;SDS011;6196;48.398;11.736;2022-07-23T05:11:00;6.97;;;5.97;;
12267;SDS011;6196;48.398;11.736;2022-07-23T05:13:26;5.80;;;5.30;;
12267;SDS011;6196;48.398;11.736;2022-07-23T05:15:53;5.77;;;5.27;;
12267;SDS011;6196;48.398;11.736;2022-07-23T05:18:20;6.73;;;5.67;;
12267;SDS011;6196;48.398;11.736;2022-07-23T05:20:47;6.30;;;5.70;;
12267;SDS011;6196;48.398;11.736;2022-07-23T05:23:14;6.80;;;6.13;;
12267;SDS011;6196;48.398;11.736;2022-07-23T05:25:41;6.00;;;5.40;;
12267;SDS011;6196;48.398;11.736;2022-07-23T05:28:08;6.30;;;5.70;;
12267;SDS011;6196;48.398;11.736;2022-07-23T05:30:35;6.23;;;5.63;;
12267;SDS011;6196;48.398;11.736;2022-07-23T05:33:02;5.63;;;5.13;;
12267;SDS011;6196;48.398;11.736;2022-07-23T05:35:29;6.13;;;5.60;;
12267;SDS011;6196;48.398;11.736;2022-07-23T05:37:56;6.67;;;5.40;;
12267;SDS011;6196;48.398;11.736;2022-07-23T05:40:23;5.83;;;5.33;;
12267;SDS011;6196;48.398;11.736;2022-07-23T05:42:50;7.13;;;5.67;;
12267;SDS011;6196;48.398;11.736;2022-07-23T05:45:17;6.00;;;5.40;;
12267;SDS011;6196;48.398;11.736;2022-07-23T05:47:45;7.40;;;6.00;;
12267;SDS011;6196;48.398;11.736;2022-07-23T05:50:14;5.87;;;5.43;;
12267;SDS011;6196;48.398;11.736;2022-07-23T05:52:42;6.30;;;5.70;;
12267;SDS011;6196;48.398;11.736;2022-07-23T05:55:11;5.43;;;5.00;;
12267;SDS011;6196;48.398;11.736;2022-07-23T05:57:41;7.50;;;6.10;;
12267;SDS011;6196;48.398;11.736;2022-07-23T06:00:08;5.97;;;5.40;;
12267;SDS011;6196;48.398;11.736;2022-07-23T06:02:37;8.33;;;6.00;;
12267;SDS011;6196;48.398;11.736;2022-07-23T06:05:05;5.87;;;5.40;;
12267;SDS011;6196;48.398;11.736;2022-07-23T06:07:34;7.10;;;6.40;;
12267;SDS011;6196;48.398;11.736;2022-07-23T06:10:02;6.20;;;5.60;;
12267;SDS011;6196;48.398;11.736;2022-07-23T06:12:30;6.30;;;5.70;;
12267;SDS011;6196;48.398;11.736;2022-07-23T06:14:57;6.37;;;5.77;;
12267;SDS011;6196;48.398;11.736;2022-07-23T06:17:24;6.93;;;6.27;;
12267;SDS011;6196;48.398;11.736;2022-07-23T06:19:52;7.20;;;5.90;;
12267;SDS011;6196;48.398;11.736;2022-07-23T06:22:19;7.17;;;6.47;;
12267;SDS011;6196;48.398;11.736;2022-07-23T06:24:47;7.83;;;6.43;;
12267;SDS011;6196;48.398;11.736;2022-07-23T06:27:14;7.30;;;6.07;;
12267;SDS011;6196;48.398;11.736;2022-07-23T06:29:41;7.10;;;6.40;;
12267;SDS011;6196;48.398;11.736;2022-07-23T06:32:08;7.63;;;6.93;;
12267;SDS011;6196;48.398;11.736;2022-07-23T06:34:35;8.53;;;7.40;;
12267;SDS011;6196;48.398;11.736;2022-07-23T06:37:02;7.90;;;7.10;;
12267;SDS011;6196;48.398;11.736;2022-07-23T06:39:29;7.10;;;6.50;;
12267;SDS011;6196;48.398;11.736;2022-07-23T06:41:56;8.13;;;7.23;;
12267;SDS011;6196;48.398;11.736;2022-07-23T06:44:26;7.33;;;6.57;;
12267;SDS011;6196;48.398;11.736;2022-07-23T06:46:53;6.93;;;6.30;;
12267;SDS011;6196;48.398;11.736;2022-07-23T06:49:20;7.70;;;6.93;;
12267;SDS011;6196;48.398;11.736;2022-07-23T06:51:47;7.10;;;6.33;;
12267;SDS011;6196;48.398;11.736;2022-07-23T06:54:14;6.93;;;6.33;;
12267;SDS011;6196;48.398;11.736;2022-07-23T06:56:40;6.83;;;6.23;;
12267;SDS011;6196;48.398;11.736;2022-07-23T06:59:08;7.70;;;6.43;;
12267;SDS011;6196;48.398;11.736;2022-07-23T07:01:35;6.47;;;5.87;;
12267;SDS011;6196;48.398;11.736;2022-07-23T07:04:03;6.87;;;6.27;;
12267;SDS011;6196;48.398;11.736;2022-07-23T07:06:30;7.77;;;7.00;;
12267;SDS011;6196;48.398;11.736;2022-07-23T07:08:57;7.57;;;6.47;;
12267;SDS011;6196;48.398;11.736;2022-07-23T07:11:25;7.27;;;6.57;;
12267;SDS011;6196;48.398;11.736;2022-07-23T07:13:52;7.23;;;6.50;;
12267;SDS011;6196;48.398;11.736;2022-07-23T07:16:19;7.67;;;6.90;;
12267;SDS011;6196;48.398;11.736;2022-07-23T07:18:46;6.90;;;6.27;;
12267;SDS011;6196;48.398;11.736;2022-07-23T07:21:13;7.03;;;6.37;;
12267;SDS011;6196;48.398;11.736;2022-07-23T07:23:40;8.07;;;7.10;;
12267;SDS011;6196;48.398;11.736;2022-07-23T07:26:07;7.57;;;6.57;;
12267;SDS011;6196;48.398;11.736;2022-07-23T07:28:34;8.67;;;7.03;;
12267;SDS011;6196;48.398;11.736;2022-07-23T07:31:01;6.93;;;6.33;;
12267;SDS011;6196;48.398;11.736;2022-07-23T07:33:28;8.13;;;6.77;;
12267;SDS011;6196;48.398;11.736;2022-07-23T07:35:55;9.40;;;6.50;;
12267;SDS011;6196;48.398;11.736;2022-07-23T07:38:22;7.17;;;6.47;;
12267;SDS011;6196;48.398;11.736;2022-07-23T07:40:50;7.33;;;6.63;;
12267;SDS011;6196;48.398;11.736;2022-07-23T07:43:17;7.73;;;6.83;;
12267;SDS011;6196;48.398;11.736;2022-07-23T07:45:43;7.30;;;6.60;;
12267;SDS011;6196;48.398;11.736;2022-07-23T07:48:10;9.37;;;6.90;;
12267;SDS011;6196;48.398;11.736;2022-07-23T07:50:37;10.60;;;7.40;;
12267;SDS011;6196;48.398;11.736;2022-07-23T07:53:04;7.20;;;6.50;;
12267;SDS011;6196;48.398;11.736;2022-07-23T07:55:31;8.10;;;7.30;;
12267;SDS011;6196;48.398;11.736;2022-07-23T07:57:58;8.30;;;7.50;;
12267;SDS011;6196;48.398;11.736;2022-07-23T08:00:27;8.10;;;7.30;;
12267;SDS011;6196;48.398;11.736;2022-07-23T08:02:55;8.10;;;7.30;;
12267;SDS011;6196;48.398;11.736;2022-07-23T08:05:26;7.60;;;6.77;;
12267;SDS011;6196;48.398;11.736;2022-07-23T08:07:55;9.73;;;7.50;;
12267;SDS011;6196;48.398;11.736;2022-07-23T08:10:23;8.13;;;7.40;;
12267;SDS011;6196;48.398;11.736;2022-07-23T08:12:53;7.27;;;6.53;;
12267;SDS011;6196;48.398;11.736;2022-07-23T08:15:23;8.13;;;7.33;;
12267;SDS011;6196;48.398;11.736;2022-07-23T08:17:53;8.03;;;7.20;;
12267;SDS011;6196;48.398;11.736;2022-07-23T08:20:21;8.27;;;7.47;;
12267;SDS011;6196;48.398;11.736;2022-07-23T08:22:50;9.83;;;7.97;;
12267;SDS011;6196;48.398;11.736;2022-07-23T08:25:29;7.93;;;7.03;;
12267;SDS011;6196;48.398;11.736;2022-07-23T08:28:03;8.30;;;7.57;;
12267;SDS011;6196;48.398;11.736;2022-07-23T08:30:33;7.70;;;7.00;;
12267;SDS011;6196;48.398;11.736;2022-07-23T08:33:03;8.20;;;7.40;;
12267;SDS011;6196;48.398;11.736;2022-07-23T08:35:34;8.40;;;7.37;;
12267;SDS011;6196;48.398;11.736;2022-07-23T08:38:04;10.23;;;7.70;;
12267;SDS011;6196;48.398;11.736;2022-07-23T08:40:34;7.93;;;7.17;;
12267;SDS011;6196;48.398;11.736;2022-07-23T08:43:09;9.43;;;7.50;;
12267;SDS011;6196;48.398;11.736;2022-07-23T08:45:42;7.97;;;7.27;;
12267;SDS011;6196;48.398;11.736;2022-07-23T08:48:12;8.20;;;7.40;;
12267;SDS011;6196;48.398;11.736;2022-07-23T08:50:43;8.73;;;7.87;;
12267;SDS011;6196;48.398;11.736;2022-07-23T08:53:14;11.20;;;8.00;;
12267;SDS011;6196;48.398;11.736;2022-07-23T08:55:47;9.40;;;8.37;;
12267;SDS011;6196;48.398;11.736;2022-07-23T08:58:19;8.37;;;7.57;;
12267;SDS011;6196;48.398;11.736;2022-07-23T09:00:53;8.37;;;7.50;;
12267;SDS011;6196;48.398;11.736;2022-07-23T09:03:23;8.07;;;7.27;;
12267;SDS011;6196;48.398;11.736;2022-07-23T09:05:53;9.40;;;7.50;;
12267;SDS011;6196;48.398;11.736;2022-07-23T09:08:25;8.37;;;7.53;;
12267;SDS011;6196;48.398;11.736;2022-07-23T09:11:15;8.60;;;7.80;;
12267;SDS011;6196;48.398;11.736;2022-07-23T09:16:20;8.80;;;8.00;;
12267;SDS011;6196;48.398;11.736;2022-07-23T09:18:57;8.90;;;7.97;;
12267;SDS011;6196;48.398;11.736;2022-07-23T09:21:33;8.90;;;8.10;;
12267;SDS011;6196;48.398;11.736;2022-07-23T09:24:04;8.17;;;7.47;;
12267;SDS011;6196;48.398;11.736;2022-07-23T09:29:18;8.83;;;8.03;;
12267;SDS011;6196;48.398;11.736;2022-07-23T09:31:55;9.20;;;8.47;;
12267;SDS011;6196;48.398;11.736;2022-07-23T09:34:27;8.73;;;7.40;;
12267;SDS011;6196;48.398;11.736;2022-07-23T09:36:57;7.33;;;6.73;;
12267;SDS011;6196;48.398;11.736;2022-07-23T09:42:38;7.33;;;6.73;;
12267;SDS011;6196;48.398;11.736;2022-07-23T09:45:06;8.00;;;7.17;;
12267;SDS011;6196;48.398;11.736;2022-07-23T09:47:38;7.93;;;7.20;;
12267;SDS011;6196;48.398;11.736;2022-07-23T09:52:45;8.60;;;6.70;;
12267;SDS011;6196;48.398;11.736;2022-07-23T09:55:15;7.70;;;6.87;;
12267;SDS011;6196;48.398;11.736;2022-07-23T09:57:44;9.13;;;8.23;;
12267;SDS011;6196;48.398;11.736;2022-07-23T10:00:15;7.60;;;6.80;;
12267;SDS011;6196;48.398;11.736;2022-07-23T10:02:42;8.17;;;7.47;;
12267;SDS011;6196;48.398;11.736;2022-07-23T10:05:13;9.23;;;7.37;;
12267;SDS011;6196;48.398;11.736;2022-07-23T10:07:41;8.20;;;7.33;;
12267;SDS011;6196;48.398;11.736;2022-07-23T10:10:12;7.40;;;6.70;;
12267;SDS011;6196;48.398;11.736;2022-07-23T10:12:42;8.50;;;6.77;;
12267;SDS011;6196;48.398;11.736;2022-07-23T10:15:10;6.87;;;6.27;;
12267;SDS011;6196;48.398;11.736;2022-07-23T10:17:37;7.87;;;6.67;;
12267;SDS011;6196;48.398;11.736;2022-07-23T10:20:04;7.05;;;6.20;;
12267;SDS011;6196;48.398;11.736;2022-07-23T10:22:38;6.00;;;5.50;;
12267;SDS011;6196;48.398;11.736;2022-07-23T10:28:03;8.03;;;5.77;;
12267;SDS011;6196;48.398;11.736;2022-07-23T10:34:02;7.25;;;6.60;;
12267;SDS011;6196;48.398;11.736;2022-07-23T10:37:16;7.05;;;6.40;;
12267;SDS011;6196;48.398;11.736;2022-07-23T10:42:44;6.78;;;6.20;;
12267;SDS011;6196;48.398;11.736;2022-07-23T10:53:57;7.90;;;7.13;;
12267;SDS011;6196;48.398;11.736;2022-07-23T10:59:21;9.75;;;6.20;;
12267;SDS011;6196;48.398;11.736;2022-07-23T11:01:48;6.95;;;6.35;;
12267;SDS011;6196;48.398;11.736;2022-07-23T11:04:18;7.32;;;6.63;;
12267;SDS011;6196;48.398;11.736;2022-07-23T11:09:29;7.38;;;6.68;;
12267;SDS011;6196;48.398;11.736;2022-07-23T11:20:20;7.13;;;6.53;;
12267;SDS011;6196;48.398;11.736;2022-07-23T11:22:54;8.27;;;7.53;;
12267;SDS011;6196;48.398;11.736;2022-07-23T11:28:16;7.18;;;6.57;;
12267;SDS011;6196;48.398;11.736;2022-07-23T11:30:47;7.38;;;6.68;;
12267;SDS011;6196;48.398;11.736;2022-07-23T11:35:47;7.20;;;6.50;;
12267;SDS011;6196;48.398;11.736;2022-07-23T11:38:30;6.85;;;6.20;;
12267;SDS011;6196;48.398;11.736;2022-07-23T11:40:58;7.00;;;6.38;;
12267;SDS011;6196;48.398;11.736;2022-07-23T11:43:25;7.28;;;6.68;;
12267;SDS011;6196;48.398;11.736;2022-07-23T11:45:54;7.28;;;6.57;;
12267;SDS011;6196;48.398;11.736;2022-07-23T11:48:29;6.53;;;5.93;;
12267;SDS011;6196;48.398;11.736;2022-07-23T11:51:01;6.65;;;5.82;;
12267;SDS011;6196;48.398;11.736;2022-07-23T11:53:29;6.60;;;5.60;;
12267;SDS011;6196;48.398;11.736;2022-07-23T11:56:03;6.78;;;6.03;;
12267;SDS011;6196;48.398;11.736;2022-07-23T11:58:36;5.82;;;5.32;;
12267;SDS011;6196;48.398;11.736;2022-07-23T12:01:05;6.85;;;5.20;;
12267;SDS011;6196;48.398;11.736;2022-07-23T12:03:47;6.53;;;5.97;;
12267;SDS011;6196;48.398;11.736;2022-07-23T12:06:18;6.53;;;5.93;;
12267;SDS011;6196;48.398;11.736;2022-07-23T12:08:45;6.13;;;5.50;;
12267;SDS011;6196;48.398;11.736;2022-07-23T12:11:12;6.65;;;5.90;;
12267;SDS011;6196;48.398;11.736;2022-07-23T12:13:40;6.10;;;5.45;;
12267;SDS011;6196;48.398;11.736;2022-07-23T12:16:06;6.57;;;5.97;;
12267;SDS011;6196;48.398;11.736;2022-07-23T12:18:35;6.40;;;5.90;;
12267;SDS011;6196;48.398;11.736;2022-07-23T12:21:03;6.70;;;6.10;;
12267;SDS011;6196;48.398;11.736;2022-07-23T12:23:32;6.63;;;6.00;;
12267;SDS011;6196;48.398;11.736;2022-07-23T12:26:02;6.63;;;6.00;;
12267;SDS011;6196;48.398;11.736;2022-07-23T12:28:31;6.60;;;6.00;;
12267;SDS011;6196;48.398;11.736;2022-07-23T12:30:59;8.10;;;6.00;;
12267;SDS011;6196;48.398;11.736;2022-07-23T12:33:37;7.30;;;6.10;;
12267;SDS011;6196;48.398;11.736;2022-07-23T12:36:07;6.75;;;6.15;;
12267;SDS011;6196;48.398;11.736;2022-07-23T12:38:43;6.60;;;6.10;;
12267;SDS011;6196;48.398;11.736;2022-07-23T12:41:17;6.88;;;6.20;;
12267;SDS011;6196;48.398;11.736;2022-07-23T12:43:44;6.78;;;6.15;;
12267;SDS011;6196;48.398;11.736;2022-07-23T12:46:13;7.00;;;6.35;;
12267;SDS011;6196;48.398;11.736;2022-07-23T12:51:28;7.20;;;6.50;;
12267;SDS011;6196;48.398;11.736;2022-07-23T12:56:36;7.40;;;6.80;;
12267;SDS011;6196;48.398;11.736;2022-07-23T12:59:14;7.20;;;6.57;;
12267;SDS011;6196;48.398;11.736;2022-07-23T13:01:45;8.55;;;7.68;;
12267;SDS011;6196;48.398;11.736;2022-07-23T13:04:23;7.82;;;6.90;;
12267;SDS011;6196;48.398;11.736;2022-07-23T13:06:55;7.47;;;6.78;;
12267;SDS011;6196;48.398;11.736;2022-07-23T13:09:31;7.97;;;7.28;;
12267;SDS011;6196;48.398;11.736;2022-07-23T13:12:07;7.30;;;6.60;;
12267;SDS011;6196;48.398;11.736;2022-07-23T13:14:36;7.15;;;6.45;;
12267;SDS011;6196;48.398;11.736;2022-07-23T13:17:04;7.75;;;6.95;;
12267;SDS011;6196;48.398;11.736;2022-07-23T13:19:32;7.35;;;6.65;;
12267;SDS011;6196;48.398;11.736;2022-07-23T13:22:00;7.70;;;7.00;;
12267;SDS011;6196;48.398;11.736;2022-07-23T13:24:34;7.45;;;6.82;;
12267;SDS011;6196;48.398;11.736;2022-07-23T13:27:04;8.80;;;7.20;;
12267;SDS011;6196;48.398;11.736;2022-07-23T13:29:32;9.85;;;7.18;;
12267;SDS011;6196;48.398;11.736;2022-07-23T13:32:02;7.53;;;6.82;;
12267;SDS011;6196;48.398;11.736;2022-07-23T13:34:38;7.97;;;7.18;;
12267;SDS011;6196;48.398;11.736;2022-07-23T13:37:07;8.60;;;7.80;;
12267;SDS011;6196;48.398;11.736;2022-07-23T13:39:34;7.85;;;7.15;;
12267;SDS011;6196;48.398;11.736;2022-07-23T13:42:04;8.05;;;7.25;;
12267;SDS011;6196;48.398;11.736;2022-07-23T13:44:33;8.73;;;7.82;;
12267;SDS011;6196;48.398;11.736;2022-07-23T13:47:01;7.93;;;7.13;;
12267;SDS011;6196;48.398;11.736;2022-07-23T13:49:29;7.60;;;6.90;;
12267;SDS011;6196;48.398;11.736;2022-07-23T13:51:56;7.88;;;7.22;;
12267;SDS011;6196;48.398;11.736;2022-07-23T13:54:24;8.23;;;7.43;;
12267;SDS011;6196;48.398;11.736;2022-07-23T13:56:53;7.68;;;6.97;;
12267;SDS011;6196;48.398;11.736;2022-07-23T13:59:21;8.68;;;7.20;;
12267;SDS011;6196;48.398;11.736;2022-07-23T14:01:52;7.63;;;6.82;;
12267;SDS011;6196;48.398;11.736;2022-07-23T14:04:39;8.13;;;7.32;;
12267;SDS011;6196;48.398;11.736;2022-07-23T14:07:07;7.75;;;7.10;;
12267;SDS011;6196;48.398;11.736;2022-07-23T14:09:35;7.70;;;6.95;;
12267;SDS011;6196;48.398;11.736;2022-07-23T14:12:02;8.32;;;7.45;;
12267;SDS011;6196;48.398;11.736;2022-07-23T14:14:30;7.90;;;7.20;;
12267;SDS011;6196;48.398;11.736;2022-07-23T14:16:57;7.95;;;7.25;;
12267;SDS011;6196;48.398;11.736;2022-07-23T14:19:26;8.68;;;7.95;;
12267;SDS011;6196;48.398;11.736;2022-07-23T14:21:56;9.00;;;8.30;;
12267;SDS011;6196;48.398;11.736;2022-07-23T14:24:23;7.85;;;7.25;;
12267;SDS011;6196;48.398;11.736;2022-07-23T14:26:55;7.78;;;7.07;;
12267;SDS011;6196;48.398;11.736;2022-07-23T14:29:22;8.23;;;7.50;;
12267;SDS011;6196;48.398;11.736;2022-07-23T14:31:49;8.18;;;7.47;;
12267;SDS011;6196;48.398;11.736;2022-07-23T14:34:16;9.73;;;7.50;;
12267;SDS011;6196;48.398;11.736;2022-07-23T14:36:52;8.40;;;7.75;;
12267;SDS011;6196;48.398;11.736;2022-07-23T14:39:19;7.78;;;7.07;;
12267;SDS011;6196;48.398;11.736;2022-07-23T14:41:46;8.32;;;7.63;;
12267;SDS011;6196;48.398;11.736;2022-07-23T14:44:15;9.55;;;8.65;;
12267;SDS011;6196;48.398;11.736;2022-07-23T14:46:43;9.25;;;8.32;;
12267;SDS011;6196;48.398;11.736;2022-07-23T14:49:10;8.85;;;7.88;;
12267;SDS011;6196;48.398;11.736;2022-07-23T14:51:37;7.75;;;6.90;;
12267;SDS011;6196;48.398;11.736;2022-07-23T14:54:04;8.60;;;7.80;;
12267;SDS011;6196;48.398;11.736;2022-07-23T14:56:31;8.80;;;8.02;;
12267;SDS011;6196;48.398;11.736;2022-07-23T14:58:59;8.73;;;8.00;;
12267;SDS011;6196;48.398;11.736;2022-07-23T15:01:27;8.32;;;7.50;;
12267;SDS011;6196;48.398;11.736;2022-07-23T15:03:54;9.38;;;8.48;;
12267;SDS011;6196;48.398;11.736;2022-07-23T15:06:24;8.85;;;8.02;;
12267;SDS011;6196;48.398;11.736;2022-07-23T15:08:51;8.30;;;7.50;;
12267;SDS011;6196;48.398;11.736;2022-07-23T15:11:18;8.60;;;7.90;;
12267;SDS011;6196;48.398;11.736;2022-07-23T15:13:46;9.65;;;8.20;;
12267;SDS011;6196;48.398;11.736;2022-07-23T15:16:14;8.73;;;7.80;;
12267;SDS011;6196;48.398;11.736;2022-07-23T15:18:42;9.38;;;8.32;;
12267;SDS011;6196;48.398;11.736;2022-07-23T15:21:09;9.23;;;8.43;;
12267;SDS011;6196;48.398;11.736;2022-07-23T15:23:36;9.52;;;8.55;;
12267;SDS011;6196;48.398;11.736;2022-07-23T15:26:06;8.25;;;7.53;;
12267;SDS011;6196;48.398;11.736;2022-07-23T15:28:34;6.53;;;6.03;;
12267;SDS011;6196;48.398;11.736;2022-07-23T15:31:02;5.80;;;5.35;;
12267;SDS011;6196;48.398;11.736;2022-07-23T15:33:34;5.72;;;5.22;;
12267;SDS011;6196;48.398;11.736;2022-07-23T15:36:03;5.50;;;5.00;;
12267;SDS011;6196;48.398;11.736;2022-07-23T15:38:30;5.70;;;5.10;;
12267;SDS011;6196;48.398;11.736;2022-07-23T15:40:58;5.90;;;5.35;;
12267;SDS011;6196;48.398;11.736;2022-07-23T15:43:25;5.97;;;5.38;;
12267;SDS011;6196;48.398;11.736;2022-07-23T15:45:52;5.57;;;5.18;;
12267;SDS011;6196;48.398;11.736;2022-07-23T15:48:20;5.43;;;4.85;;
12267;SDS011;6196;48.398;11.736;2022-07-23T15:50:48;5.55;;;5.15;;